Time;durP1;ratioP1;P1;durP2;ratioP2;P2;SDS_P1;SDS_P2;PMS_P1;PMS_P2;Temp;Humidity;BMP_temperature;BMP_pressure;BME280_temperature;BME280_humidity;BME280_pressure;Samples;Min_cycle;Max_cycle;Signal;HPM_P1;HPM_P2
2021/09/11 00:04:30;;;;;;;4.80;3.90;;;;;;;;;;10587773;28;20139;-86
2021/09/11 00:09:31;;;;;;;4.00;2.90;;;;;;;;;;10586130;28;20043;-87
2021/09/11 00:14:32;;;;;;;3.90;3.30;;;;;;;;;;10568935;28;20536;-87
2021/09/11 00:19:33;;;;;;;3.50;2.78;;;;;;;;;;10568467;28;20135;-87
2021/09/11 00:24:34;;;;;;;3.65;2.85;;;;;;;;;;10567574;28;20092;-87
2021/09/11 00:29:37;;;;;;;3.03;2.72;;;;;;;;;;10567103;28;20538;-88
2021/09/11 00:34:38;;;;;;;3.55;2.53;;;;;;;;;;10585355;28;20423;-87
2021/09/11 00:39:39;;;;;;;3.28;2.40;;;;;;;;;;10566416;28;20134;-87
2021/09/11 00:44:40;;;;;;;3.42;2.60;;;;;;;;;;10567620;28;20047;-87
2021/09/11 00:49:41;;;;;;;2.90;2.60;;;;;;;;;;10567014;28;20070;-86
2021/09/11 00:54:42;;;;;;;4.15;2.70;;;;;;;;;;10568140;28;20398;-87
2021/09/11 00:59:43;;;;;;;3.55;2.58;;;;;;;;;;10567796;28;20042;-87
2021/09/11 01:04:44;;;;;;;2.75;2.50;;;;;;;;;;10569049;28;20055;-87
2021/09/11 01:09:45;;;;;;;2.92;2.40;;;;;;;;;;10597657;28;20146;-87
2021/09/11 01:14:46;;;;;;;2.95;2.60;;;;;;;;;;10569173;28;20434;-87
2021/09/11 01:19:47;;;;;;;3.10;2.40;;;;;;;;;;10583530;28;20050;-88
2021/09/11 01:24:59;;;;;;;3.13;2.30;;;;;;;;;;10566778;28;20564;-87
2021/09/11 01:30:01;;;;;;;3.35;2.28;;;;;;;;;;10574368;28;20397;-87
2021/09/11 01:35:03;;;;;;;2.67;2.33;;;;;;;;;;10565741;28;20032;-87
2021/09/11 01:40:05;;;;;;;2.72;2.10;;;;;;;;;;10565449;28;20122;-88
2021/09/11 01:45:13;;;;;;;2.60;2.38;;;;;;;;;;10581887;28;20035;-87
2021/09/11 01:50:15;;;;;;;4.93;3.10;;;;;;;;;;10564055;28;20032;-87
2021/09/11 01:55:16;;;;;;;4.22;3.25;;;;;;;;;;10563684;28;20046;-86
2021/09/11 02:00:18;;;;;;;8.05;5.43;;;;;;;;;;10563334;28;20136;-87
2021/09/11 02:05:22;;;;;;;5.30;4.80;;;;;;;;;;10568332;28;20054;-86
2021/09/11 02:10:24;;;;;;;6.22;5.63;;;;;;;;;;10574760;28;20047;-87
2021/09/11 02:15:26;;;;;;;8.43;7.38;;;;;;;;;;10572074;28;20034;-87
2021/09/11 02:20:57;;;;;;;8.45;7.65;;;;;;;;;;10572392;28;20039;-87
2021/09/11 02:26:03;;;;;;;9.25;7.38;;;;;;;;;;10571518;28;20035;-86
2021/09/11 02:31:05;;;;;;;11.45;9.93;;;;;;;;;;10583362;28;20061;-86
2021/09/11 02:36:12;;;;;;;10.82;9.73;;;;;;;;;;10554329;28;20040;-86
2021/09/11 02:41:17;;;;;;;11.57;10.35;;;;;;;;;;10571399;28;20128;-86
2021/09/11 02:51:59;;;;;;;9.65;8.73;;;;;;;;;;10589434;28;20058;-87
2021/09/11 02:57:09;;;;;;;9.70;8.80;;;;;;;;;;10586243;28;20039;-87
2021/09/11 03:02:16;;;;;;;9.45;8.55;;;;;;;;;;10541585;28;20035;-87
2021/09/11 03:07:17;;;;;;;9.23;8.32;;;;;;;;;;10569419;28;20074;-87
2021/09/11 03:12:18;;;;;;;9.52;8.63;;;;;;;;;;10570028;28;20036;-87
2021/09/11 03:17:19;;;;;;;8.70;7.90;;;;;;;;;;10569608;28;20116;-87
2021/09/11 03:22:35;;;;;;;8.23;7.43;;;;;;;;;;10569161;28;20032;-87
2021/09/11 03:27:39;;;;;;;8.52;7.72;;;;;;;;;;10570515;28;20031;-87
2021/09/11 03:32:41;;;;;;;8.50;7.32;;;;;;;;;;10576669;28;20100;-87
2021/09/11 03:37:45;;;;;;;8.88;7.97;;;;;;;;;;10563860;28;20032;-87
2021/09/11 03:42:47;;;;;;;8.65;7.85;;;;;;;;;;10617076;28;20063;-86
2021/09/11 03:47:50;;;;;;;7.75;7.00;;;;;;;;;;10568866;28;20027;-87
2021/09/11 03:52:53;;;;;;;7.63;6.93;;;;;;;;;;10615136;28;20030;-84
2021/09/11 03:57:54;;;;;;;7.40;6.70;;;;;;;;;;10580339;28;20487;-87
2021/09/11 04:02:55;;;;;;;6.60;6.00;;;;;;;;;;10567145;28;20070;-85
2021/09/11 04:07:56;;;;;;;8.13;7.32;;;;;;;;;;10566686;28;20489;-86
2021/09/11 04:13:01;;;;;;;8.05;7.18;;;;;;;;;;10566803;28;20027;-87
2021/09/11 04:18:03;;;;;;;9.43;8.45;;;;;;;;;;10549901;28;20394;-86
2021/09/11 04:23:04;;;;;;;11.02;9.20;;;;;;;;;;10566601;28;20027;-86
2021/09/11 04:28:10;;;;;;;7.35;6.63;;;;;;;;;;10584459;28;20042;-86
2021/09/11 04:33:11;;;;;;;8.35;7.55;;;;;;;;;;10567478;28;20034;-87
2021/09/11 04:38:14;;;;;;;8.85;6.80;;;;;;;;;;10567311;28;20379;-86
2021/09/11 04:43:15;;;;;;;10.60;9.32;;;;;;;;;;10565772;28;20066;-86
2021/09/11 04:48:16;;;;;;;8.80;7.93;;;;;;;;;;10565517;28;20046;-87
2021/09/11 04:53:23;;;;;;;10.38;9.32;;;;;;;;;;10565886;28;20032;-87
2021/09/11 05:04:05;;;;;;;12.85;11.55;;;;;;;;;;10586287;28;20020;-87
2021/09/11 05:09:26;;;;;;;7.97;7.18;;;;;;;;;;10568373;28;20039;-87
2021/09/11 05:14:48;;;;;;;8.93;7.65;;;;;;;;;;10455516;28;20126;-87
2021/09/11 05:20:38;;;;;;;8.68;7.78;;;;;;;;;;10440438;28;20040;-87
2021/09/11 05:37:00;;;;;;;6.15;5.43;;;;;;;;;;10575974;28;20077;-87
2021/09/11 05:42:27;;;;;;;8.02;6.95;;;;;;;;;;10583396;28;20036;-87
2021/09/11 06:09:42;;;;;;;7.80;5.43;;;;;;;;;;10499481;28;20072;-85
2021/09/11 06:14:49;;;;;;;6.97;5.20;;;;;;;;;;10498616;28;20025;-85
2021/09/11 06:25:56;;;;;;;5.43;4.80;;;;;;;;;;10541184;28;20027;-85
2021/09/11 06:31:24;;;;;;;6.20;4.95;;;;;;;;;;10533123;28;20032;-86
2021/09/11 06:36:25;;;;;;;5.18;4.05;;;;;;;;;;10521596;28;20117;-86
2021/09/11 06:41:26;;;;;;;7.18;4.60;;;;;;;;;;10521829;28;20036;-86
2021/09/11 06:46:27;;;;;;;5.45;4.00;;;;;;;;;;10522614;28;20032;-85
2021/09/11 06:51:28;;;;;;;5.25;4.00;;;;;;;;;;10522087;28;20036;-85
2021/09/11 06:56:29;;;;;;;5.88;4.40;;;;;;;;;;10529581;28;20036;-85
2021/09/11 07:01:30;;;;;;;4.32;3.75;;;;;;;;;;10530771;28;20455;-86
2021/09/11 07:06:34;;;;;;;3.40;3.10;;;;;;;;;;10540992;28;20599;-87
2021/09/11 07:11:41;;;;;;;5.20;3.30;;;;;;;;;;10535878;28;20131;-89
2021/09/11 07:16:43;;;;;;;5.55;3.92;;;;;;;;;;10530041;28;20032;-88
2021/09/11 07:21:53;;;;;;;5.65;4.15;;;;;;;;;;10531708;28;20031;-90
2021/09/11 07:27:04;;;;;;;5.93;4.63;;;;;;;;;;10529365;28;20039;-88
2021/09/11 07:32:07;;;;;;;10.73;4.60;;;;;;;;;;10533946;28;20032;-89
2021/09/11 07:43:01;;;;;;;9.07;5.55;;;;;;;;;;10517227;28;20106;-87
2021/09/11 07:54:01;;;;;;;6.57;4.45;;;;;;;;;;10423345;28;20172;-88
2021/09/11 08:10:46;;;;;;;7.05;3.60;;;;;;;;;;10423316;28;20111;-89
2021/09/11 08:15:59;;;;;;;5.70;3.88;;;;;;;;;;10416183;28;20096;-86
2021/09/11 08:21:03;;;;;;;6.72;3.60;;;;;;;;;;10422791;28;20029;-89
2021/09/11 08:37:32;;;;;;;6.93;3.58;;;;;;;;;;10400447;28;20549;-86
2021/09/11 08:42:48;;;;;;;7.22;3.65;;;;;;;;;;10399907;28;20037;-86
2021/09/11 08:47:49;;;;;;;6.38;3.80;;;;;;;;;;10399918;28;20072;-86
2021/09/11 08:52:51;;;;;;;4.20;3.50;;;;;;;;;;10405088;28;20037;-85
2021/09/11 08:58:05;;;;;;;5.20;3.35;;;;;;;;;;10429525;28;20603;-85
2021/09/11 09:03:26;;;;;;;4.90;3.15;;;;;;;;;;10426518;28;20095;-86
2021/09/11 09:08:30;;;;;;;4.22;3.60;;;;;;;;;;10420480;28;20033;-86
2021/09/11 09:13:48;;;;;;;8.38;3.35;;;;;;;;;;10418527;28;20045;-87
2021/09/11 09:18:50;;;;;;;6.00;3.83;;;;;;;;;;10417767;28;20124;-87
2021/09/11 09:23:53;;;;;;;5.45;3.25;;;;;;;;;;10419409;28;20068;-89
2021/09/11 09:46:20;;;;;;;5.30;3.10;;;;;;;;;;10426960;28;20123;-89
2021/09/11 09:57:12;;;;;;;5.18;2.63;;;;;;;;;;10336674;28;20109;-90
2021/09/11 10:02:13;;;;;;;5.80;2.85;;;;;;;;;;10419616;28;20108;-87
2021/09/11 10:07:16;;;;;;;3.67;2.83;;;;;;;;;;10417926;28;20151;-87
2021/09/11 10:12:47;;;;;;;3.95;2.45;;;;;;;;;;10417481;28;20036;-89
2021/09/11 10:18:25;;;;;;;5.72;2.30;;;;;;;;;;10417496;28;20030;-89
2021/09/11 10:24:00;;;;;;;3.38;2.50;;;;;;;;;;10381453;28;20522;-90
2021/09/11 12:45:58;;;;;;;4.18;3.15;;;;;;;;;;10464353;28;20542;-90
2021/09/11 12:50:59;;;;;;;6.20;3.30;;;;;;;;;;10444630;28;20037;-89
2021/09/11 12:56:04;;;;;;;4.65;3.13;;;;;;;;;;10451072;28;20112;-90
2021/09/11 13:01:04;;;;;;;4.60;3.33;;;;;;;;;;10446883;28;20029;-91
2021/09/11 13:11:33;;;;;;;3.58;3.08;;;;;;;;;;10502349;28;20176;-88
2021/09/11 13:28:38;;;;;;;4.40;3.00;;;;;;;;;;10463664;28;20040;-90
2021/09/11 13:45:35;;;;;;;7.80;3.17;;;;;;;;;;10470732;28;20033;-88
2021/09/11 14:24:40;;;;;;;7.38;3.20;;;;;;;;;;10461486;28;20033;-86
2021/09/11 14:29:42;;;;;;;5.20;3.05;;;;;;;;;;10448614;28;20124;-87
2021/09/11 14:46:02;;;;;;;5.28;3.70;;;;;;;;;;10458608;28;20491;-87
2021/09/11 14:51:08;;;;;;;3.30;2.90;;;;;;;;;;10442091;28;20513;-87
2021/09/11 14:56:09;;;;;;;3.63;2.80;;;;;;;;;;10442526;28;20025;-88
2021/09/11 15:01:10;;;;;;;3.88;2.83;;;;;;;;;;10454341;28;20068;-88
2021/09/11 15:06:11;;;;;;;3.50;2.70;;;;;;;;;;10445601;28;20033;-87
2021/09/11 15:11:12;;;;;;;6.70;2.47;;;;;;;;;;10439459;28;20132;-88
2021/09/11 15:16:16;;;;;;;3.60;2.72;;;;;;;;;;10444844;28;20037;-87
2021/09/11 15:21:17;;;;;;;3.05;2.45;;;;;;;;;;10447475;28;20033;-87
2021/09/11 15:26:18;;;;;;;4.57;3.00;;;;;;;;;;10446302;28;20063;-87
2021/09/11 15:31:19;;;;;;;5.00;2.97;;;;;;;;;;10447638;28;20135;-88
2021/09/11 15:36:20;;;;;;;3.38;2.72;;;;;;;;;;10447773;28;20069;-87
2021/09/11 15:41:21;;;;;;;4.25;2.42;;;;;;;;;;10446727;28;20450;-87
2021/09/11 15:46:22;;;;;;;4.45;3.03;;;;;;;;;;10447770;28;20041;-87
2021/09/11 15:51:23;;;;;;;4.43;2.70;;;;;;;;;;10445604;28;20143;-89
2021/09/11 15:56:24;;;;;;;2.90;2.22;;;;;;;;;;10445846;28;20037;-89
2021/09/11 16:01:25;;;;;;;5.78;2.88;;;;;;;;;;10447524;28;20067;-89
2021/09/11 16:06:27;;;;;;;4.30;3.05;;;;;;;;;;10454519;28;20041;-86
2021/09/11 16:11:28;;;;;;;4.00;2.65;;;;;;;;;;10446530;28;20029;-86
2021/09/11 16:16:31;;;;;;;3.83;3.08;;;;;;;;;;10445908;28;20056;-87
2021/09/11 16:21:32;;;;;;;3.42;2.72;;;;;;;;;;10446929;28;20536;-87
2021/09/11 16:26:33;;;;;;;3.70;2.83;;;;;;;;;;10463532;28;20041;-87
2021/09/11 16:31:34;;;;;;;4.20;3.08;;;;;;;;;;10446691;28;20449;-86
2021/09/11 16:36:35;;;;;;;4.80;3.40;;;;;;;;;;10445186;28;20048;-86
2021/09/11 16:41:36;;;;;;;3.58;2.95;;;;;;;;;;10450367;28;20049;-86
2021/09/11 16:58:06;;;;;;;3.28;2.70;;;;;;;;;;10450994;28;20041;-86
2021/09/11 17:03:07;;;;;;;3.97;2.28;;;;;;;;;;10451228;28;20030;-86
2021/09/11 17:25:59;;;;;;;5.75;2.78;;;;;;;;;;10264336;28;20043;-86
2021/09/11 17:59:52;;;;;;;7.97;4.10;;;;;;;;;;10202153;29;20039;-86
